createdAt,value
2023-01-01T00:00:39.756Z,432.05
2023-01-01T00:03:06.182Z,434.23
2023-01-01T00:05:32.742Z,451.27
2023-01-01T00:08:04.671Z,470.35
2023-01-01T00:10:31.741Z,471.98
2023-01-01T00:12:58.828Z,479.02
2023-01-01T00:15:27.388Z,477.23
2023-01-01T00:17:53.766Z,472.00
2023-01-01T00:20:20.356Z,482.48
2023-01-01T00:22:55.895Z,482.77
2023-01-01T00:25:23.342Z,450.73
2023-01-01T00:27:50.011Z,473.17
2023-01-01T00:30:16.548Z,487.25
2023-01-01T00:32:42.952Z,476.65
2023-01-01T00:35:21.476Z,440.15
2023-01-01T00:37:47.871Z,475.70
2023-01-01T00:40:14.280Z,463.88
2023-01-01T00:42:40.652Z,446.63
2023-01-01T00:45:07.865Z,438.02
2023-01-01T00:47:34.351Z,438.30
2023-01-01T00:50:00.720Z,427.10
2023-01-01T00:52:27.024Z,417.98
2023-01-01T00:54:53.622Z,406.08
2023-01-01T00:57:20.191Z,413.42
2023-01-01T00:59:46.550Z,408.80
2023-01-01T01:02:13.038Z,413.92
2023-01-01T01:04:39.468Z,405.92
2023-01-01T01:07:06.038Z,393.08
2023-01-01T01:09:32.553Z,407.30
2023-01-01T01:12:18.691Z,403.95
2023-01-01T01:14:45.969Z,412.58
2023-01-01T01:17:12.395Z,415.73
2023-01-01T01:19:38.928Z,370.60
2023-01-01T01:22:05.443Z,407.13
2023-01-01T01:24:32.038Z,394.02
2023-01-01T01:26:58.440Z,378.55
2023-01-01T01:29:25.047Z,383.75
2023-01-01T01:31:51.428Z,363.17
2023-01-01T01:34:21.145Z,339.63
2023-01-01T01:36:50.549Z,364.52
2023-01-01T01:39:17.189Z,336.80
2023-01-01T01:41:43.903Z,346.48
2023-01-01T01:44:48.046Z,367.50
2023-01-01T01:47:58.234Z,327.45
2023-01-01T01:50:29.706Z,353.73
2023-01-01T01:53:10.794Z,303.70
2023-01-01T01:55:40.802Z,337.40
2023-01-01T01:58:11.342Z,339.17
2023-01-01T02:00:37.758Z,336.25
2023-01-01T02:03:12.662Z,334.85
2023-01-01T02:05:41.416Z,324.90
2023-01-01T02:08:09.662Z,310.98
2023-01-01T02:10:36.228Z,348.77
2023-01-01T02:13:02.662Z,355.23
2023-01-01T02:15:32.811Z,349.42
2023-01-01T02:18:14.716Z,371.55
2023-01-01T02:20:53.828Z,356.23
2023-01-01T02:23:31.772Z,386.02
2023-01-01T02:26:17.671Z,346.20
2023-01-01T02:29:02.801Z,344.65
2023-01-01T02:31:35.037Z,344.92
2023-01-01T02:34:07.100Z,377.42
2023-01-01T02:36:38.167Z,375.73
2023-01-01T02:39:08.402Z,333.98
2023-01-01T02:41:40.090Z,353.05
2023-01-01T02:46:34.407Z,361.60
2023-01-01T02:49:07.987Z,357.20
2023-01-01T02:52:15.794Z,357.58
2023-01-01T02:54:46.441Z,363.90
2023-01-01T02:57:37.520Z,370.73
2023-01-01T03:02:51.637Z,320.20
2023-01-01T03:05:30.564Z,348.65
2023-01-01T03:08:12.316Z,369.05
2023-01-01T03:10:50.859Z,336.45
2023-01-01T03:13:35.287Z,324.85
2023-01-01T03:16:21.700Z,359.95
2023-01-01T03:19:02.022Z,343.52
2023-01-01T03:21:28.641Z,327.33
2023-01-01T03:23:56.000Z,342.45
2023-01-01T03:26:25.408Z,317.25
2023-01-01T03:28:58.299Z,342.27
2023-01-01T03:31:26.325Z,335.35
2023-01-01T03:34:01.243Z,325.17
2023-01-01T03:36:36.251Z,323.40
2023-01-01T03:39:12.116Z,300.33
2023-01-01T03:41:47.771Z,301.73
2023-01-01T03:44:38.497Z,323.42
2023-01-01T03:47:06.244Z,296.48
2023-01-01T03:49:33.771Z,284.92
2023-01-01T03:52:21.396Z,297.88
2023-01-01T03:55:19.996Z,262.23
2023-01-01T03:57:57.170Z,283.20
2023-01-01T04:00:27.640Z,286.42
2023-01-01T04:03:10.805Z,281.75
2023-01-01T04:05:40.520Z,295.98
2023-01-01T04:08:07.909Z,283.75
2023-01-01T04:10:39.684Z,285.73
2023-01-01T04:13:07.011Z,270.85
2023-01-01T04:15:34.195Z,286.60
2023-01-01T04:18:00.668Z,270.63
2023-01-01T04:20:27.102Z,243.82
2023-01-01T04:22:56.818Z,243.88
2023-01-01T04:25:23.449Z,246.88
2023-01-01T04:27:49.896Z,236.98
2023-01-01T04:30:16.949Z,225.98
2023-01-01T04:32:43.707Z,216.15
2023-01-01T04:35:11.891Z,206.43
2023-01-01T04:37:39.869Z,189.25
2023-01-01T04:40:07.263Z,202.73
2023-01-01T04:42:33.692Z,190.30
2023-01-01T04:45:00.347Z,200.60
2023-01-01T04:47:26.881Z,189.73
2023-01-01T04:49:54.277Z,204.30
2023-01-01T04:52:21.363Z,187.38
2023-01-01T04:54:47.840Z,190.35
2023-01-01T04:57:14.253Z,183.93
2023-01-01T04:59:41.506Z,206.77
2023-01-01T05:02:07.959Z,215.02
2023-01-01T05:04:34.561Z,188.65
2023-01-01T05:07:01.319Z,209.18
2023-01-01T05:09:27.752Z,213.90
2023-01-01T05:11:55.095Z,212.48
2023-01-01T05:14:21.625Z,189.18
2023-01-01T05:16:48.025Z,218.00
2023-01-01T05:19:14.586Z,216.13
2023-01-01T05:21:41.651Z,214.85
2023-01-01T05:24:10.015Z,219.82
2023-01-01T05:26:40.166Z,209.10
2023-01-01T05:29:13.758Z,225.00
2023-01-01T05:31:42.436Z,232.98
2023-01-01T05:36:36.061Z,225.75
2023-01-01T05:39:02.413Z,211.85
2023-01-01T05:41:29.004Z,238.32
2023-01-01T05:43:55.457Z,236.35
2023-01-01T05:46:24.184Z,243.70
2023-01-01T05:48:52.676Z,247.45
2023-01-01T05:51:22.070Z,252.10
2023-01-01T05:53:48.819Z,246.02
2023-01-01T05:56:16.449Z,255.02
2023-01-01T05:58:44.058Z,258.58
2023-01-01T06:01:14.864Z,269.27
2023-01-01T06:03:43.009Z,264.50
2023-01-01T06:06:14.570Z,270.90
2023-01-01T06:08:41.321Z,278.08
2023-01-01T06:11:11.178Z,278.85
2023-01-01T06:13:37.950Z,269.23
2023-01-01T06:16:04.566Z,275.52
2023-01-01T06:18:34.284Z,278.73
2023-01-01T06:21:09.412Z,276.08
2023-01-01T06:23:36.335Z,273.30
2023-01-01T06:26:12.628Z,277.70
2023-01-01T06:28:40.107Z,264.75
2023-01-01T06:31:08.437Z,269.05
2023-01-01T06:33:35.422Z,273.45
2023-01-01T06:36:08.025Z,271.83
2023-01-01T06:38:36.392Z,271.25
2023-01-01T06:41:05.563Z,277.58
2023-01-01T06:43:34.261Z,282.85
2023-01-01T06:46:05.275Z,278.17
2023-01-01T06:48:34.811Z,277.33
2023-01-01T06:51:16.209Z,277.95
2023-01-01T06:53:43.458Z,270.80
2023-01-01T06:56:09.929Z,272.13
2023-01-01T06:58:36.561Z,274.83
2023-01-01T07:01:13.160Z,233.18
2023-01-01T07:03:40.372Z,238.20
2023-01-01T07:06:08.226Z,235.07
2023-01-01T07:08:35.885Z,249.13
2023-01-01T07:11:02.353Z,257.33
2023-01-01T07:13:30.157Z,225.23
2023-01-01T07:15:56.682Z,200.60
2023-01-01T07:18:25.208Z,228.50
2023-01-01T07:20:55.256Z,221.65
2023-01-01T07:23:21.856Z,229.55
2023-01-01T07:25:52.791Z,216.85
2023-01-01T07:30:46.657Z,185.88
2023-01-01T07:33:18.200Z,214.25
2023-01-01T07:35:45.356Z,218.57
2023-01-01T07:38:12.531Z,214.90
2023-01-01T07:40:39.273Z,217.27
2023-01-01T07:43:05.962Z,204.48
2023-01-01T07:45:33.451Z,214.18
2023-01-01T07:48:00.588Z,210.30
2023-01-01T07:50:29.546Z,207.70
2023-01-01T07:52:55.901Z,214.77
2023-01-01T07:55:22.508Z,201.02
2023-01-01T07:57:49.558Z,206.48
2023-01-01T08:00:18.857Z,175.15
2023-01-01T08:02:45.958Z,181.55
2023-01-01T08:05:12.433Z,189.77
2023-01-01T08:07:39.556Z,185.30
2023-01-01T08:10:07.518Z,178.23
2023-01-01T08:12:34.365Z,178.07
2023-01-01T08:15:00.859Z,176.10
2023-01-01T08:17:27.316Z,163.65
2023-01-01T08:19:53.837Z,166.45
2023-01-01T08:22:20.207Z,152.02
2023-01-01T08:24:46.789Z,157.10
2023-01-01T08:27:15.093Z,158.45
2023-01-01T08:29:42.561Z,152.23
2023-01-01T08:32:09.025Z,153.52
2023-01-01T08:34:35.773Z,155.30
2023-01-01T08:37:02.137Z,142.45
2023-01-01T08:39:28.799Z,149.07
2023-01-01T08:41:55.302Z,147.32
2023-01-01T08:44:21.692Z,130.85
2023-01-01T08:46:48.211Z,131.88
2023-01-01T08:49:14.642Z,148.23
2023-01-01T08:51:41.106Z,152.77
2023-01-01T08:54:07.793Z,139.43
2023-01-01T08:56:34.188Z,141.32
2023-01-01T08:59:04.122Z,133.98
2023-01-01T09:01:31.080Z,135.40
2023-01-01T09:03:57.792Z,133.43
2023-01-01T09:06:24.128Z,112.20
2023-01-01T09:08:50.571Z,119.97
2023-01-01T09:11:26.868Z,107.05
2023-01-01T09:13:54.222Z,109.07
2023-01-01T09:16:21.562Z,108.28
2023-01-01T09:18:48.275Z,107.20
2023-01-01T09:21:15.022Z,98.78
2023-01-01T09:23:41.638Z,105.72
2023-01-01T09:26:09.896Z,99.22
2023-01-01T09:28:37.259Z,94.32
2023-01-01T09:31:04.430Z,90.32
2023-01-01T09:33:30.775Z,95.60
2023-01-01T09:36:15.698Z,86.82
2023-01-01T09:38:42.327Z,79.55
2023-01-01T09:41:19.929Z,75.15
2023-01-01T09:44:26.241Z,72.97
2023-01-01T09:46:54.560Z,83.35
2023-01-01T09:49:41.233Z,77.00
2023-01-01T09:52:13.146Z,78.47
2023-01-01T09:54:59.843Z,82.75
2023-01-01T09:57:30.743Z,82.32
2023-01-01T10:02:41.230Z,72.13
2023-01-01T10:05:29.861Z,70.18
2023-01-01T10:08:02.597Z,72.90
2023-01-01T10:10:57.591Z,64.43
2023-01-01T10:13:36.632Z,68.80
2023-01-01T10:16:12.266Z,60.78
2023-01-01T10:18:40.871Z,67.18
2023-01-01T10:21:16.241Z,53.75
2023-01-01T10:23:54.745Z,59.42
2023-01-01T10:26:24.914Z,57.90
2023-01-01T10:28:57.116Z,57.67
2023-01-01T10:31:55.124Z,48.47
2023-01-01T10:34:25.974Z,58.17
2023-01-01T10:39:20.512Z,57.90
2023-01-01T10:41:48.071Z,55.28
2023-01-01T10:44:18.537Z,58.10
2023-01-01T10:46:50.561Z,52.42
2023-01-01T10:49:17.112Z,47.65
2023-01-01T10:51:54.312Z,53.20
2023-01-01T10:54:32.674Z,54.55
2023-01-01T10:56:59.795Z,44.55
2023-01-01T10:59:39.640Z,43.40
2023-01-01T11:02:28.351Z,53.90
2023-01-01T11:05:22.184Z,49.35
2023-01-01T11:07:49.599Z,41.67
2023-01-01T11:10:21.516Z,41.22
2023-01-01T11:13:05.729Z,45.63
2023-01-01T11:15:39.516Z,40.72
2023-01-01T11:18:25.781Z,39.22
2023-01-01T11:20:54.634Z,36.83
2023-01-01T11:23:32.292Z,38.60
2023-01-01T11:26:01.500Z,42.70
2023-01-01T11:28:28.448Z,41.63
2023-01-01T11:31:16.012Z,35.25
2023-01-01T11:33:52.625Z,32.67
2023-01-01T11:36:31.212Z,36.80
2023-01-01T11:39:25.145Z,30.77
2023-01-01T11:41:54.316Z,62.88
2023-01-01T11:44:34.685Z,34.20
2023-01-01T11:47:02.363Z,29.77
2023-01-01T11:49:30.446Z,28.90
2023-01-01T11:51:58.437Z,23.52
2023-01-01T11:54:33.317Z,25.75
2023-01-01T11:57:12.066Z,23.17
2023-01-01T11:59:49.881Z,25.75
2023-01-01T12:02:30.394Z,26.38
2023-01-01T12:05:13.789Z,21.83
2023-01-01T12:07:43.208Z,21.13
2023-01-01T12:10:23.078Z,20.05
2023-01-01T12:13:04.206Z,22.70
2023-01-01T12:15:47.677Z,21.80
2023-01-01T12:18:39.693Z,22.25
2023-01-01T12:21:18.599Z,21.35
2023-01-01T12:23:45.098Z,22.83
2023-01-01T12:26:32.068Z,20.10
2023-01-01T12:29:35.253Z,19.55
2023-01-01T12:32:17.517Z,20.38
2023-01-01T12:34:59.337Z,20.40
2023-01-01T12:37:28.335Z,19.13
2023-01-01T12:40:00.502Z,22.40
2023-01-01T12:43:01.647Z,20.02
2023-01-01T12:46:01.577Z,16.55
2023-01-01T12:48:28.129Z,15.52
2023-01-01T12:51:19.326Z,15.38
2023-01-01T12:54:12.911Z,15.07
2023-01-01T12:57:17.084Z,13.75
2023-01-01T12:59:48.249Z,13.52
2023-01-01T13:02:20.783Z,13.63
2023-01-01T13:04:49.581Z,13.15
2023-01-01T13:07:26.089Z,12.40
2023-01-01T13:09:52.519Z,12.95
2023-01-01T13:12:23.129Z,11.65
2023-01-01T13:17:30.181Z,14.52
2023-01-01T13:20:15.062Z,12.88
2023-01-01T13:22:42.280Z,13.25
2023-01-01T13:25:08.941Z,11.80
2023-01-01T13:27:57.183Z,11.15
2023-01-01T13:30:35.983Z,9.20
2023-01-01T13:33:31.241Z,9.50
2023-01-01T13:36:10.047Z,9.35
2023-01-01T13:38:53.109Z,10.07
2023-01-01T13:41:25.297Z,8.73
2023-01-01T13:44:11.433Z,9.85
2023-01-01T13:46:44.077Z,11.55
2023-01-01T13:49:28.085Z,12.27
2023-01-01T13:52:09.790Z,11.52
2023-01-01T13:54:38.878Z,10.52
2023-01-01T13:57:38.145Z,12.13
2023-01-01T14:00:14.072Z,13.25
2023-01-01T14:02:48.627Z,10.30
2023-01-01T14:05:33.356Z,10.43
2023-01-01T14:07:59.862Z,9.60
2023-01-01T14:10:34.455Z,9.48
2023-01-01T14:13:06.637Z,8.15
2023-01-01T14:15:37.860Z,9.30
2023-01-01T14:18:10.133Z,8.43
2023-01-01T14:20:43.058Z,9.40
2023-01-01T14:23:29.483Z,9.32
2023-01-01T14:25:56.932Z,9.55
2023-01-01T14:28:29.347Z,8.75
2023-01-01T14:30:57.562Z,8.98
2023-01-01T14:33:27.669Z,7.97
2023-01-01T14:35:56.202Z,8.30
2023-01-01T14:38:28.323Z,8.60
2023-01-01T14:41:15.471Z,9.25
2023-01-01T14:43:45.259Z,8.80
2023-01-01T14:46:21.185Z,9.70
2023-01-01T14:48:51.695Z,10.52
2023-01-01T14:51:23.756Z,9.63
2023-01-01T14:53:52.912Z,9.15
2023-01-01T14:56:28.453Z,9.93
2023-01-01T14:59:12.465Z,9.07
2023-01-01T15:01:38.908Z,9.18
2023-01-01T15:04:19.145Z,10.38
2023-01-01T15:06:45.757Z,8.70
2023-01-01T15:09:16.590Z,9.48
2023-01-01T15:11:43.439Z,9.48
2023-01-01T15:14:39.079Z,9.40
2023-01-01T15:17:08.259Z,10.30
2023-01-01T15:19:36.329Z,8.65
2023-01-01T15:22:11.683Z,8.75
2023-01-01T15:24:39.446Z,8.57
2023-01-01T15:27:07.734Z,8.98
2023-01-01T15:29:44.903Z,8.43
2023-01-01T15:32:14.731Z,8.85
2023-01-01T15:34:50.229Z,9.63
2023-01-01T15:37:23.312Z,9.90
2023-01-01T15:39:52.685Z,10.75
2023-01-01T15:42:35.574Z,10.60
2023-01-01T15:45:22.458Z,9.88
2023-01-01T15:47:51.200Z,10.50
2023-01-01T15:50:17.564Z,13.63
2023-01-01T15:52:44.471Z,14.90
2023-01-01T15:55:15.676Z,14.10
2023-01-01T15:57:46.371Z,17.40
2023-01-01T16:00:40.935Z,15.18
2023-01-01T16:03:21.815Z,13.57
2023-01-01T16:08:16.854Z,13.43
2023-01-01T16:10:43.592Z,28.30
2023-01-01T16:13:10.123Z,17.15
2023-01-01T16:15:37.167Z,14.93
2023-01-01T16:18:04.072Z,12.77
2023-01-01T16:20:30.485Z,12.38
2023-01-01T16:22:56.831Z,11.13
2023-01-01T16:25:23.282Z,10.73
2023-01-01T16:27:49.879Z,9.93
2023-01-01T16:30:16.645Z,10.90
2023-01-01T16:32:43.121Z,10.32
2023-01-01T16:35:13.584Z,10.95
2023-01-01T16:37:40.083Z,11.50
2023-01-01T16:40:07.551Z,10.93
2023-01-01T16:42:34.035Z,11.07
2023-01-01T16:45:00.692Z,11.02
2023-01-01T16:47:27.280Z,11.45
2023-01-01T16:49:53.645Z,11.70
2023-01-01T16:52:20.108Z,12.45
2023-01-01T16:54:46.560Z,11.80
2023-01-01T16:57:13.057Z,11.88
2023-01-01T16:59:39.658Z,13.13
2023-01-01T17:02:06.448Z,13.73
2023-01-01T17:04:33.012Z,13.40
2023-01-01T17:06:59.419Z,13.27
2023-01-01T17:09:26.095Z,14.10
2023-01-01T17:11:52.520Z,14.55
2023-01-01T17:14:18.817Z,15.38
2023-01-01T17:16:45.215Z,16.73
2023-01-01T17:19:14.987Z,17.50
2023-01-01T17:21:42.518Z,18.13
2023-01-01T17:24:09.288Z,17.95
2023-01-01T17:26:35.775Z,18.70
2023-01-01T17:29:03.125Z,17.48
2023-01-01T17:31:30.100Z,16.10
2023-01-01T17:33:57.060Z,16.35
2023-01-01T17:36:23.704Z,17.88
2023-01-01T17:38:50.063Z,17.60
2023-01-01T17:41:17.726Z,18.48
2023-01-01T17:43:47.747Z,18.00
2023-01-01T17:46:17.218Z,17.57
2023-01-01T17:48:44.405Z,17.05
2023-01-01T17:51:12.812Z,15.10
2023-01-01T17:53:39.497Z,13.45
2023-01-01T17:56:06.691Z,15.95
2023-01-01T17:58:35.452Z,15.40
2023-01-01T18:01:19.091Z,16.52
2023-01-01T18:03:45.737Z,15.13
2023-01-01T18:06:12.158Z,14.75
2023-01-01T18:08:38.533Z,16.02
2023-01-01T18:11:05.353Z,15.50
2023-01-01T18:13:32.271Z,15.68
2023-01-01T18:16:08.036Z,16.42
2023-01-01T18:18:38.790Z,18.27
2023-01-01T18:21:12.476Z,17.55
2023-01-01T18:23:39.921Z,17.38
2023-01-01T18:26:09.545Z,16.70
2023-01-01T18:28:35.923Z,15.48
2023-01-01T18:31:16.140Z,15.80
2023-01-01T18:33:43.211Z,15.95
2023-01-01T18:36:12.617Z,16.08
2023-01-01T18:38:58.332Z,16.25
2023-01-01T18:41:33.724Z,17.77
2023-01-01T18:44:00.430Z,16.50
2023-01-01T18:46:29.388Z,16.88
2023-01-01T18:48:59.826Z,16.20
2023-01-01T18:51:26.588Z,16.17
2023-01-01T18:53:58.685Z,15.32
2023-01-01T18:56:25.641Z,18.05
2023-01-01T18:58:56.322Z,16.63
2023-01-01T19:01:24.258Z,16.17
2023-01-01T19:04:01.021Z,16.92
2023-01-01T19:06:36.113Z,17.60
2023-01-01T19:09:23.334Z,17.67
2023-01-01T19:11:54.407Z,16.63
2023-01-01T19:14:24.175Z,15.75
2023-01-01T19:16:55.481Z,14.25
2023-01-01T19:19:26.859Z,14.48
2023-01-01T19:22:01.725Z,14.75
2023-01-01T19:24:31.371Z,14.93
2023-01-01T19:27:15.375Z,15.85
2023-01-01T19:29:44.489Z,20.08
2023-01-01T19:32:11.136Z,18.30
2023-01-01T19:34:37.702Z,21.55
2023-01-01T19:37:04.997Z,20.42
2023-01-01T19:39:32.161Z,20.60
2023-01-01T19:41:58.784Z,18.65
2023-01-01T19:44:25.521Z,18.17
2023-01-01T19:46:51.920Z,16.90
2023-01-01T19:49:18.317Z,18.63
2023-01-01T19:51:45.108Z,17.70
2023-01-01T19:54:11.745Z,20.05
2023-01-01T19:56:38.256Z,19.77
2023-01-01T19:59:04.789Z,18.40
2023-01-01T20:01:31.261Z,20.40
2023-01-01T20:03:58.040Z,19.20
2023-01-01T20:06:26.016Z,19.08
2023-01-01T20:08:53.733Z,18.48
2023-01-01T20:11:21.020Z,18.70
2023-01-01T20:13:48.155Z,17.02
2023-01-01T20:16:14.569Z,16.02
2023-01-01T20:18:40.994Z,15.30
2023-01-01T20:21:07.541Z,20.27
2023-01-01T20:23:34.038Z,16.13
2023-01-01T20:26:00.472Z,16.58
2023-01-01T20:28:26.876Z,17.90
2023-01-01T20:30:53.273Z,15.75
2023-01-01T20:33:19.787Z,17.35
2023-01-01T20:35:46.232Z,17.95
2023-01-01T20:38:12.717Z,16.63
2023-01-01T20:40:39.199Z,17.25
2023-01-01T20:43:06.055Z,16.35
2023-01-01T20:45:32.622Z,16.98
2023-01-01T20:47:59.163Z,17.48
2023-01-01T20:50:25.796Z,19.73
2023-01-01T20:52:52.180Z,18.02
2023-01-01T20:55:18.524Z,17.15
2023-01-01T20:57:44.877Z,18.27
2023-01-01T21:00:11.657Z,19.30
2023-01-01T21:02:38.147Z,17.77
2023-01-01T21:05:04.849Z,18.85
2023-01-01T21:07:31.390Z,17.42
2023-01-01T21:09:57.851Z,17.17
2023-01-01T21:12:24.217Z,15.73
2023-01-01T21:14:51.655Z,16.83
2023-01-01T21:17:23.118Z,14.65
2023-01-01T21:19:52.127Z,15.32
2023-01-01T21:22:18.490Z,15.90
2023-01-01T21:24:49.696Z,15.50
2023-01-01T21:27:24.245Z,15.68
2023-01-01T21:29:55.938Z,15.45
2023-01-01T21:32:26.829Z,17.33
2023-01-01T21:37:33.599Z,15.80
2023-01-01T21:40:00.185Z,16.50
2023-01-01T21:42:28.141Z,16.33
2023-01-01T21:44:57.560Z,16.67
2023-01-01T21:47:25.907Z,16.95
2023-01-01T21:49:56.235Z,17.95
2023-01-01T21:52:25.021Z,18.92
2023-01-01T21:54:51.319Z,18.52
2023-01-01T21:57:22.497Z,18.80
2023-01-01T21:59:50.540Z,17.38
2023-01-01T22:02:26.239Z,18.33
2023-01-01T22:04:52.758Z,19.48
2023-01-01T22:10:21.883Z,25.30
2023-01-01T22:12:53.959Z,20.35
2023-01-01T22:15:26.432Z,18.77
2023-01-01T22:18:21.887Z,17.52
2023-01-01T22:20:48.632Z,16.52
2023-01-01T22:23:28.525Z,17.27
2023-01-01T22:25:54.839Z,16.52
2023-01-01T22:28:27.237Z,16.25
2023-01-01T22:30:58.695Z,15.73
2023-01-01T22:33:37.747Z,15.57
2023-01-01T22:36:15.211Z,17.42
2023-01-01T22:38:43.111Z,17.20
2023-01-01T22:41:09.896Z,17.30
2023-01-01T22:43:41.099Z,16.58
2023-01-01T22:46:17.026Z,18.10
2023-01-01T22:48:43.604Z,16.58
2023-01-01T22:51:18.425Z,16.33
2023-01-01T22:53:45.223Z,16.52
2023-01-01T22:56:11.722Z,17.02
2023-01-01T22:58:38.213Z,16.55
2023-01-01T23:01:04.761Z,16.20
2023-01-01T23:03:31.373Z,16.17
2023-01-01T23:05:58.641Z,16.08
2023-01-01T23:08:25.872Z,15.18
2023-01-01T23:10:53.470Z,16.15
2023-01-01T23:13:20.083Z,16.58
2023-01-01T23:15:49.725Z,16.40
2023-01-01T23:18:20.212Z,17.13
2023-01-01T23:20:46.557Z,17.92
2023-01-01T23:23:12.949Z,18.55
2023-01-01T23:25:39.437Z,17.45
2023-01-01T23:28:05.976Z,17.25
2023-01-01T23:30:32.698Z,17.70
2023-01-01T23:32:59.264Z,17.27
2023-01-01T23:35:25.756Z,16.85
2023-01-01T23:37:52.229Z,16.67
2023-01-01T23:40:18.834Z,16.90
2023-01-01T23:42:45.162Z,16.02
2023-01-01T23:45:11.508Z,16.23
2023-01-01T23:47:37.865Z,15.13
2023-01-01T23:50:04.567Z,16.23
2023-01-01T23:52:31.064Z,15.40
2023-01-01T23:54:57.426Z,14.73
2023-01-01T23:57:23.890Z,15.45
2023-01-01T23:59:50.237Z,15.80
